sensor_id;sensor_type;location;lat;lon;timestamp;temperature;humidity
10192;DHT22;17580;50.850;4.504;2023-05-18T00:00:56;9.30;27.90
10192;DHT22;17580;50.850;4.504;2023-05-18T00:03:24;9.20;28.10
10192;DHT22;17580;50.850;4.504;2023-05-18T00:05:54;9.20;27.60
10192;DHT22;17580;50.850;4.504;2023-05-18T00:08:22;9.20;27.30
10192;DHT22;17580;50.850;4.504;2023-05-18T00:10:49;9.20;28.10
10192;DHT22;17580;50.850;4.504;2023-05-18T00:13:16;9.20;29.40
10192;DHT22;17580;50.850;4.504;2023-05-18T00:15:43;9.10;29.60
10192;DHT22;17580;50.850;4.504;2023-05-18T00:18:10;9.10;29.10
10192;DHT22;17580;50.850;4.504;2023-05-18T00:20:37;9.00;28.90
10192;DHT22;17580;50.850;4.504;2023-05-18T00:23:05;8.90;29.50
10192;DHT22;17580;50.850;4.504;2023-05-18T00:25:35;8.90;29.80
10192;DHT22;17580;50.850;4.504;2023-05-18T00:28:02;8.90;29.20
10192;DHT22;17580;50.850;4.504;2023-05-18T00:30:29;8.90;29.20
10192;DHT22;17580;50.850;4.504;2023-05-18T00:32:56;8.90;29.10
10192;DHT22;17580;50.850;4.504;2023-05-18T00:35:23;8.90;29.50
10192;DHT22;17580;50.850;4.504;2023-05-18T00:37:50;8.90;28.90
10192;DHT22;17580;50.850;4.504;2023-05-18T00:40:18;8.90;29.70
10192;DHT22;17580;50.850;4.504;2023-05-18T00:42:46;8.80;30.30
10192;DHT22;17580;50.850;4.504;2023-05-18T00:45:13;8.80;30.10
10192;DHT22;17580;50.850;4.504;2023-05-18T00:47:39;8.70;30.70
10192;DHT22;17580;50.850;4.504;2023-05-18T00:50:07;8.70;30.60
10192;DHT22;17580;50.850;4.504;2023-05-18T00:52:34;8.70;30.80
10192;DHT22;17580;50.850;4.504;2023-05-18T00:55:02;8.60;30.20
10192;DHT22;17580;50.850;4.504;2023-05-18T00:57:31;8.60;31.50
10192;DHT22;17580;50.850;4.504;2023-05-18T00:59:58;8.50;31.50
10192;DHT22;17580;50.850;4.504;2023-05-18T01:02:26;8.50;30.70
10192;DHT22;17580;50.850;4.504;2023-05-18T01:04:54;8.50;32.00
10192;DHT22;17580;50.850;4.504;2023-05-18T01:07:21;8.50;32.00
10192;DHT22;17580;50.850;4.504;2023-05-18T01:09:51;8.50;32.70
10192;DHT22;17580;50.850;4.504;2023-05-18T01:12:25;8.40;32.10
10192;DHT22;17580;50.850;4.504;2023-05-18T01:15:04;8.40;32.20
10192;DHT22;17580;50.850;4.504;2023-05-18T01:17:41;8.40;32.70
10192;DHT22;17580;50.850;4.504;2023-05-18T01:20:20;8.30;32.50
10192;DHT22;17580;50.850;4.504;2023-05-18T01:23:10;8.30;33.00
10192;DHT22;17580;50.850;4.504;2023-05-18T01:25:46;8.30;33.40
10192;DHT22;17580;50.850;4.504;2023-05-18T01:28:19;8.30;33.10
10192;DHT22;17580;50.850;4.504;2023-05-18T01:30:47;8.20;34.20
10192;DHT22;17580;50.850;4.504;2023-05-18T01:33:14;8.30;33.10
10192;DHT22;17580;50.850;4.504;2023-05-18T01:35:41;8.30;34.10
10192;DHT22;17580;50.850;4.504;2023-05-18T01:38:13;8.20;33.70
10192;DHT22;17580;50.850;4.504;2023-05-18T01:40:48;8.20;33.80
10192;DHT22;17580;50.850;4.504;2023-05-18T01:43:21;8.10;34.10
10192;DHT22;17580;50.850;4.504;2023-05-18T01:45:55;8.10;34.40
10192;DHT22;17580;50.850;4.504;2023-05-18T01:48:24;8.10;35.10
10192;DHT22;17580;50.850;4.504;2023-05-18T01:50:54;8.10;35.10
10192;DHT22;17580;50.850;4.504;2023-05-18T01:53:26;8.00;35.70
10192;DHT22;17580;50.850;4.504;2023-05-18T01:55:54;8.00;35.80
10192;DHT22;17580;50.850;4.504;2023-05-18T01:58:23;8.00;36.10
10192;DHT22;17580;50.850;4.504;2023-05-18T02:00:51;8.00;35.80
10192;DHT22;17580;50.850;4.504;2023-05-18T02:03:18;7.90;36.20
10192;DHT22;17580;50.850;4.504;2023-05-18T02:05:45;7.90;36.70
10192;DHT22;17580;50.850;4.504;2023-05-18T02:08:12;7.90;36.40
10192;DHT22;17580;50.850;4.504;2023-05-18T02:10:38;7.90;36.90
10192;DHT22;17580;50.850;4.504;2023-05-18T02:13:05;7.80;37.30
10192;DHT22;17580;50.850;4.504;2023-05-18T02:15:34;7.80;37.10
10192;DHT22;17580;50.850;4.504;2023-05-18T02:18:01;7.80;37.70
10192;DHT22;17580;50.850;4.504;2023-05-18T02:20:28;7.80;37.10
10192;DHT22;17580;50.850;4.504;2023-05-18T02:22:58;7.70;37.70
10192;DHT22;17580;50.850;4.504;2023-05-18T02:25:25;7.70;37.70
10192;DHT22;17580;50.850;4.504;2023-05-18T02:27:52;7.70;38.50
10192;DHT22;17580;50.850;4.504;2023-05-18T02:30:19;7.70;37.80
10192;DHT22;17580;50.850;4.504;2023-05-18T02:32:48;7.70;37.90
10192;DHT22;17580;50.850;4.504;2023-05-18T02:35:15;7.70;38.00
10192;DHT22;17580;50.850;4.504;2023-05-18T02:37:42;7.70;39.00
10192;DHT22;17580;50.850;4.504;2023-05-18T02:40:10;7.60;39.00
10192;DHT22;17580;50.850;4.504;2023-05-18T02:42:38;7.60;38.80
10192;DHT22;17580;50.850;4.504;2023-05-18T02:45:06;7.60;39.50
10192;DHT22;17580;50.850;4.504;2023-05-18T02:47:33;7.50;39.30
10192;DHT22;17580;50.850;4.504;2023-05-18T02:50:02;7.50;38.90
10192;DHT22;17580;50.850;4.504;2023-05-18T02:52:29;7.50;39.10
10192;DHT22;17580;50.850;4.504;2023-05-18T02:54:56;7.50;39.70
10192;DHT22;17580;50.850;4.504;2023-05-18T02:57:22;7.50;40.20
10192;DHT22;17580;50.850;4.504;2023-05-18T02:59:49;7.50;39.80
10192;DHT22;17580;50.850;4.504;2023-05-18T03:02:16;7.40;40.10
10192;DHT22;17580;50.850;4.504;2023-05-18T03:04:43;7.40;39.90
10192;DHT22;17580;50.850;4.504;2023-05-18T03:07:13;7.40;40.60
10192;DHT22;17580;50.850;4.504;2023-05-18T03:09:40;7.40;40.50
10192;DHT22;17580;50.850;4.504;2023-05-18T03:12:07;7.40;40.50
10192;DHT22;17580;50.850;4.504;2023-05-18T03:14:34;7.30;40.90
10192;DHT22;17580;50.850;4.504;2023-05-18T03:17:01;7.30;41.30
10192;DHT22;17580;50.850;4.504;2023-05-18T03:19:30;7.30;41.30
10192;DHT22;17580;50.850;4.504;2023-05-18T03:21:59;7.20;41.30
10192;DHT22;17580;50.850;4.504;2023-05-18T03:24:27;7.20;42.20
10192;DHT22;17580;50.850;4.504;2023-05-18T03:26:54;7.30;42.30
10192;DHT22;17580;50.850;4.504;2023-05-18T03:29:22;7.30;42.10
10192;DHT22;17580;50.850;4.504;2023-05-18T03:31:49;7.30;41.50
10192;DHT22;17580;50.850;4.504;2023-05-18T03:34:16;7.30;42.70
10192;DHT22;17580;50.850;4.504;2023-05-18T03:36:43;7.20;42.10
10192;DHT22;17580;50.850;4.504;2023-05-18T03:39:11;7.20;42.30
10192;DHT22;17580;50.850;4.504;2023-05-18T03:41:40;7.20;41.90
10192;DHT22;17580;50.850;4.504;2023-05-18T03:44:07;7.20;42.20
10192;DHT22;17580;50.850;4.504;2023-05-18T03:46:34;7.20;42.60
10192;DHT22;17580;50.850;4.504;2023-05-18T03:49:01;7.20;42.80
10192;DHT22;17580;50.850;4.504;2023-05-18T03:51:29;7.20;43.00
10192;DHT22;17580;50.850;4.504;2023-05-18T03:53:56;7.20;42.90
10192;DHT22;17580;50.850;4.504;2023-05-18T03:56:23;7.10;43.30
10192;DHT22;17580;50.850;4.504;2023-05-18T03:58:52;7.10;42.80
10192;DHT22;17580;50.850;4.504;2023-05-18T04:01:19;7.00;42.80
10192;DHT22;17580;50.850;4.504;2023-05-18T04:03:48;7.10;43.60
10192;DHT22;17580;50.850;4.504;2023-05-18T04:06:16;7.10;43.20
10192;DHT22;17580;50.850;4.504;2023-05-18T04:08:43;7.00;43.60
10192;DHT22;17580;50.850;4.504;2023-05-18T04:11:10;7.00;43.80
10192;DHT22;17580;50.850;4.504;2023-05-18T04:13:37;7.00;44.00
10192;DHT22;17580;50.850;4.504;2023-05-18T04:16:06;7.00;44.10
10192;DHT22;17580;50.850;4.504;2023-05-18T04:18:35;7.00;44.40
10192;DHT22;17580;50.850;4.504;2023-05-18T04:21:02;7.00;44.60
10192;DHT22;17580;50.850;4.504;2023-05-18T04:23:31;7.00;44.80
10192;DHT22;17580;50.850;4.504;2023-05-18T04:26:03;7.00;44.70
10192;DHT22;17580;50.850;4.504;2023-05-18T04:28:30;7.00;44.90
10192;DHT22;17580;50.850;4.504;2023-05-18T04:30:57;7.00;45.70
10192;DHT22;17580;50.850;4.504;2023-05-18T04:33:27;7.10;45.90
10192;DHT22;17580;50.850;4.504;2023-05-18T04:35:54;7.10;46.10
10192;DHT22;17580;50.850;4.504;2023-05-18T04:38:23;7.10;46.70
10192;DHT22;17580;50.850;4.504;2023-05-18T04:40:50;7.10;47.20
10192;DHT22;17580;50.850;4.504;2023-05-18T04:43:18;7.10;47.30
10192;DHT22;17580;50.850;4.504;2023-05-18T04:45:45;7.10;46.90
10192;DHT22;17580;50.850;4.504;2023-05-18T04:48:15;7.20;47.90
10192;DHT22;17580;50.850;4.504;2023-05-18T04:50:45;7.20;47.30
10192;DHT22;17580;50.850;4.504;2023-05-18T04:53:12;7.30;47.10
10192;DHT22;17580;50.850;4.504;2023-05-18T04:55:42;7.30;46.90
10192;DHT22;17580;50.850;4.504;2023-05-18T04:58:10;7.40;46.50
10192;DHT22;17580;50.850;4.504;2023-05-18T05:00:37;7.50;45.80
10192;DHT22;17580;50.850;4.504;2023-05-18T05:03:04;7.50;46.10
10192;DHT22;17580;50.850;4.504;2023-05-18T05:05:31;7.50;45.80
10192;DHT22;17580;50.850;4.504;2023-05-18T05:08:00;7.60;45.20
10192;DHT22;17580;50.850;4.504;2023-05-18T05:10:29;7.60;45.30
10192;DHT22;17580;50.850;4.504;2023-05-18T05:12:56;7.60;44.90
10192;DHT22;17580;50.850;4.504;2023-05-18T05:15:23;7.60;44.80
10192;DHT22;17580;50.850;4.504;2023-05-18T05:17:50;7.70;45.70
10192;DHT22;17580;50.850;4.504;2023-05-18T05:20:17;7.80;45.20
10192;DHT22;17580;50.850;4.504;2023-05-18T05:22:44;7.90;45.10
10192;DHT22;17580;50.850;4.504;2023-05-18T05:25:12;8.10;44.00
10192;DHT22;17580;50.850;4.504;2023-05-18T05:27:39;8.10;43.90
10192;DHT22;17580;50.850;4.504;2023-05-18T05:30:07;8.20;43.60
10192;DHT22;17580;50.850;4.504;2023-05-18T05:32:34;8.20;44.10
10192;DHT22;17580;50.850;4.504;2023-05-18T05:35:01;8.20;42.80
10192;DHT22;17580;50.850;4.504;2023-05-18T05:37:28;8.20;43.00
10192;DHT22;17580;50.850;4.504;2023-05-18T05:39:55;8.30;42.80
10192;DHT22;17580;50.850;4.504;2023-05-18T05:42:24;8.50;40.90
10192;DHT22;17580;50.850;4.504;2023-05-18T05:44:51;8.60;42.10
10192;DHT22;17580;50.850;4.504;2023-05-18T05:47:18;8.70;39.80
10192;DHT22;17580;50.850;4.504;2023-05-18T05:49:45;8.80;39.40
10192;DHT22;17580;50.850;4.504;2023-05-18T05:52:12;8.80;38.10
10192;DHT22;17580;50.850;4.504;2023-05-18T05:54:39;8.80;38.10
10192;DHT22;17580;50.850;4.504;2023-05-18T05:57:06;8.80;39.60
10192;DHT22;17580;50.850;4.504;2023-05-18T05:59:34;8.80;39.80
10192;DHT22;17580;50.850;4.504;2023-05-18T06:02:01;9.00;37.90
10192;DHT22;17580;50.850;4.504;2023-05-18T06:04:28;9.00;38.10
10192;DHT22;17580;50.850;4.504;2023-05-18T06:06:55;9.00;38.10
10192;DHT22;17580;50.850;4.504;2023-05-18T06:09:22;9.10;37.50
10192;DHT22;17580;50.850;4.504;2023-05-18T06:11:49;9.30;37.40
10192;DHT22;17580;50.850;4.504;2023-05-18T06:14:17;9.30;37.30
10192;DHT22;17580;50.850;4.504;2023-05-18T06:16:45;9.20;36.50
10192;DHT22;17580;50.850;4.504;2023-05-18T06:19:12;9.30;34.90
10192;DHT22;17580;50.850;4.504;2023-05-18T06:21:39;9.40;34.90
10192;DHT22;17580;50.850;4.504;2023-05-18T06:24:06;9.50;35.80
10192;DHT22;17580;50.850;4.504;2023-05-18T06:26:33;9.50;35.80
10192;DHT22;17580;50.850;4.504;2023-05-18T06:29:00;9.50;34.80
10192;DHT22;17580;50.850;4.504;2023-05-18T06:31:27;9.50;35.30
10192;DHT22;17580;50.850;4.504;2023-05-18T06:33:56;9.60;36.30
10192;DHT22;17580;50.850;4.504;2023-05-18T06:36:23;9.70;36.40
10192;DHT22;17580;50.850;4.504;2023-05-18T06:38:50;9.70;35.80
10192;DHT22;17580;50.850;4.504;2023-05-18T06:41:17;9.80;35.50
10192;DHT22;17580;50.850;4.504;2023-05-18T06:43:44;9.90;35.40
10192;DHT22;17580;50.850;4.504;2023-05-18T06:46:18;9.90;35.40
10192;DHT22;17580;50.850;4.504;2023-05-18T06:48:45;9.70;35.00
10192;DHT22;17580;50.850;4.504;2023-05-18T06:51:14;9.80;35.10
10192;DHT22;17580;50.850;4.504;2023-05-18T06:53:41;10.00;34.50
10192;DHT22;17580;50.850;4.504;2023-05-18T06:56:08;10.10;34.30
10192;DHT22;17580;50.850;4.504;2023-05-18T06:58:36;10.20;33.00
10192;DHT22;17580;50.850;4.504;2023-05-18T07:01:03;10.20;34.10
10192;DHT22;17580;50.850;4.504;2023-05-18T07:03:30;10.30;33.70
10192;DHT22;17580;50.850;4.504;2023-05-18T07:05:58;10.30;32.50
10192;DHT22;17580;50.850;4.504;2023-05-18T07:08:26;10.30;32.60
10192;DHT22;17580;50.850;4.504;2023-05-18T07:10:53;10.40;33.20
10192;DHT22;17580;50.850;4.504;2023-05-18T07:13:22;10.70;32.60
10192;DHT22;17580;50.850;4.504;2023-05-18T07:15:49;10.80;32.60
10192;DHT22;17580;50.850;4.504;2023-05-18T07:18:16;10.90;33.20
10192;DHT22;17580;50.850;4.504;2023-05-18T07:20:44;10.90;31.70
10192;DHT22;17580;50.850;4.504;2023-05-18T07:23:12;11.00;31.20
10192;DHT22;17580;50.850;4.504;2023-05-18T07:25:40;11.00;31.00
10192;DHT22;17580;50.850;4.504;2023-05-18T07:28:07;11.10;31.20
10192;DHT22;17580;50.850;4.504;2023-05-18T07:30:34;11.10;30.30
10192;DHT22;17580;50.850;4.504;2023-05-18T07:33:01;11.10;31.10
10192;DHT22;17580;50.850;4.504;2023-05-18T07:35:29;11.30;30.60
10192;DHT22;17580;50.850;4.504;2023-05-18T07:37:55;11.30;30.00
10192;DHT22;17580;50.850;4.504;2023-05-18T07:40:22;11.50;30.00
10192;DHT22;17580;50.850;4.504;2023-05-18T07:42:51;11.40;31.00
10192;DHT22;17580;50.850;4.504;2023-05-18T07:45:18;11.30;31.10
10192;DHT22;17580;50.850;4.504;2023-05-18T07:47:45;11.50;29.90
10192;DHT22;17580;50.850;4.504;2023-05-18T07:50:12;11.60;31.80
10192;DHT22;17580;50.850;4.504;2023-05-18T07:52:38;11.70;31.80
10192;DHT22;17580;50.850;4.504;2023-05-18T07:55:06;11.80;30.30
10192;DHT22;17580;50.850;4.504;2023-05-18T07:57:33;11.90;29.60
10192;DHT22;17580;50.850;4.504;2023-05-18T08:00:02;12.10;29.90
10192;DHT22;17580;50.850;4.504;2023-05-18T08:02:31;11.90;29.00
10192;DHT22;17580;50.850;4.504;2023-05-18T08:04:58;12.00;30.30
10192;DHT22;17580;50.850;4.504;2023-05-18T08:07:27;12.20;30.40
10192;DHT22;17580;50.850;4.504;2023-05-18T08:09:54;12.10;30.20
10192;DHT22;17580;50.850;4.504;2023-05-18T08:12:21;12.20;30.20
10192;DHT22;17580;50.850;4.504;2023-05-18T08:14:49;12.30;29.80
10192;DHT22;17580;50.850;4.504;2023-05-18T08:17:17;12.20;28.70
10192;DHT22;17580;50.850;4.504;2023-05-18T08:19:45;12.20;28.70
10192;DHT22;17580;50.850;4.504;2023-05-18T08:22:13;12.30;28.70
10192;DHT22;17580;50.850;4.504;2023-05-18T08:24:40;12.30;28.30
10192;DHT22;17580;50.850;4.504;2023-05-18T08:27:07;12.00;29.30
10192;DHT22;17580;50.850;4.504;2023-05-18T08:29:35;11.90;29.50
10192;DHT22;17580;50.850;4.504;2023-05-18T08:32:04;12.00;30.00
10192;DHT22;17580;50.850;4.504;2023-05-18T08:34:34;12.10;30.70
10192;DHT22;17580;50.850;4.504;2023-05-18T08:37:01;12.10;29.10
10192;DHT22;17580;50.850;4.504;2023-05-18T08:39:28;12.00;29.10
10192;DHT22;17580;50.850;4.504;2023-05-18T08:42:01;12.10;29.00
10192;DHT22;17580;50.850;4.504;2023-05-18T08:44:35;12.10;29.20
10192;DHT22;17580;50.850;4.504;2023-05-18T08:47:08;12.10;28.00
10192;DHT22;17580;50.850;4.504;2023-05-18T08:49:37;12.10;28.90
10192;DHT22;17580;50.850;4.504;2023-05-18T08:52:07;12.20;28.40
10192;DHT22;17580;50.850;4.504;2023-05-18T08:54:35;12.40;28.00
10192;DHT22;17580;50.850;4.504;2023-05-18T08:57:04;12.70;28.20
10192;DHT22;17580;50.850;4.504;2023-05-18T08:59:37;13.00;27.50
10192;DHT22;17580;50.850;4.504;2023-05-18T09:02:05;13.20;27.90
10192;DHT22;17580;50.850;4.504;2023-05-18T09:04:32;13.30;25.90
10192;DHT22;17580;50.850;4.504;2023-05-18T09:07:02;13.40;26.10
10192;DHT22;17580;50.850;4.504;2023-05-18T09:09:30;13.90;24.90
10192;DHT22;17580;50.850;4.504;2023-05-18T09:11:57;14.30;25.90
10192;DHT22;17580;50.850;4.504;2023-05-18T09:14:25;14.60;24.00
10192;DHT22;17580;50.850;4.504;2023-05-18T09:16:52;15.30;24.30
10192;DHT22;17580;50.850;4.504;2023-05-18T09:19:19;16.40;21.10
10192;DHT22;17580;50.850;4.504;2023-05-18T09:21:47;17.60;21.30
10192;DHT22;17580;50.850;4.504;2023-05-18T09:24:15;18.20;15.30
10192;DHT22;17580;50.850;4.504;2023-05-18T09:26:43;18.70;16.10
10192;DHT22;17580;50.850;4.504;2023-05-18T09:29:17;19.30;13.70
10192;DHT22;17580;50.850;4.504;2023-05-18T09:31:45;19.50;12.20
10192;DHT22;17580;50.850;4.504;2023-05-18T09:34:12;19.10;9.60
10192;DHT22;17580;50.850;4.504;2023-05-18T09:36:39;19.90;9.70
10192;DHT22;17580;50.850;4.504;2023-05-18T09:39:08;20.30;8.50
10192;DHT22;17580;50.850;4.504;2023-05-18T09:41:38;21.20;6.80
10192;DHT22;17580;50.850;4.504;2023-05-18T09:44:05;21.70;6.40
10192;DHT22;17580;50.850;4.504;2023-05-18T09:46:35;22.90;2.10
10192;DHT22;17580;50.850;4.504;2023-05-18T09:49:03;22.00;1.30
10192;DHT22;17580;50.850;4.504;2023-05-18T09:51:33;20.80;1.40
10192;DHT22;17580;50.850;4.504;2023-05-18T09:54:01;20.40;1.30
10192;DHT22;17580;50.850;4.504;2023-05-18T09:56:30;20.40;1.70
10192;DHT22;17580;50.850;4.504;2023-05-18T09:59:09;20.20;1.00
10192;DHT22;17580;50.850;4.504;2023-05-18T10:01:37;19.80;1.30
10192;DHT22;17580;50.850;4.504;2023-05-18T10:04:20;20.40;1.00
10192;DHT22;17580;50.850;4.504;2023-05-18T10:06:47;20.50;1.00
10192;DHT22;17580;50.850;4.504;2023-05-18T10:09:15;21.00;1.00
10192;DHT22;17580;50.850;4.504;2023-05-18T10:11:42;21.70;1.00
10192;DHT22;17580;50.850;4.504;2023-05-18T10:14:11;20.90;1.00
10192;DHT22;17580;50.850;4.504;2023-05-18T10:16:39;20.20;1.00
10192;DHT22;17580;50.850;4.504;2023-05-18T10:19:08;20.30;1.00
10192;DHT22;17580;50.850;4.504;2023-05-18T10:21:37;20.60;1.00
10192;DHT22;17580;50.850;4.504;2023-05-18T10:24:05;21.10;1.00
10192;DHT22;17580;50.850;4.504;2023-05-18T10:26:35;21.70;1.00
10192;DHT22;17580;50.850;4.504;2023-05-18T10:29:05;22.70;1.00
10192;DHT22;17580;50.850;4.504;2023-05-18T10:31:34;22.80;1.00
10192;DHT22;17580;50.850;4.504;2023-05-18T10:34:03;23.20;1.00
10192;DHT22;17580;50.850;4.504;2023-05-18T10:36:32;23.30;1.00
10192;DHT22;17580;50.850;4.504;2023-05-18T10:39:02;22.80;1.00
10192;DHT22;17580;50.850;4.504;2023-05-18T10:41:30;23.00;1.00
10192;DHT22;17580;50.850;4.504;2023-05-18T10:43:59;23.60;1.00
10192;DHT22;17580;50.850;4.504;2023-05-18T10:46:29;23.80;1.00
10192;DHT22;17580;50.850;4.504;2023-05-18T10:48:58;23.60;1.00
10192;DHT22;17580;50.850;4.504;2023-05-18T10:51:29;23.40;1.00
10192;DHT22;17580;50.850;4.504;2023-05-18T10:54:11;23.00;1.00
10192;DHT22;17580;50.850;4.504;2023-05-18T10:56:40;22.80;1.00
10192;DHT22;17580;50.850;4.504;2023-05-18T10:59:09;23.00;1.00
10192;DHT22;17580;50.850;4.504;2023-05-18T11:01:37;23.00;1.00
10192;DHT22;17580;50.850;4.504;2023-05-18T11:04:07;22.60;1.00
10192;DHT22;17580;50.850;4.504;2023-05-18T11:06:34;22.30;1.00
10192;DHT22;17580;50.850;4.504;2023-05-18T11:09:02;22.10;1.00
10192;DHT22;17580;50.850;4.504;2023-05-18T11:11:29;22.50;1.00
10192;DHT22;17580;50.850;4.504;2023-05-18T11:13:59;23.00;1.00
10192;DHT22;17580;50.850;4.504;2023-05-18T11:16:32;23.50;1.00
10192;DHT22;17580;50.850;4.504;2023-05-18T11:19:05;23.60;1.00
10192;DHT22;17580;50.850;4.504;2023-05-18T11:21:52;23.30;1.00
10192;DHT22;17580;50.850;4.504;2023-05-18T11:24:22;23.30;1.00
10192;DHT22;17580;50.850;4.504;2023-05-18T11:26:50;23.10;1.00
10192;DHT22;17580;50.850;4.504;2023-05-18T11:29:22;23.20;1.00
10192;DHT22;17580;50.850;4.504;2023-05-18T11:31:51;23.20;1.00
10192;DHT22;17580;50.850;4.504;2023-05-18T11:34:49;23.30;1.00
10192;DHT22;17580;50.850;4.504;2023-05-18T11:37:47;23.50;1.00
10192;DHT22;17580;50.850;4.504;2023-05-18T11:40:45;23.10;1.00
10192;DHT22;17580;50.850;4.504;2023-05-18T11:43:21;23.10;1.00
10192;DHT22;17580;50.850;4.504;2023-05-18T11:45:53;23.10;1.00
10192;DHT22;17580;50.850;4.504;2023-05-18T11:48:21;22.70;1.00
10192;DHT22;17580;50.850;4.504;2023-05-18T11:50:52;22.80;1.00
10192;DHT22;17580;50.850;4.504;2023-05-18T11:53:21;22.40;1.00
10192;DHT22;17580;50.850;4.504;2023-05-18T11:55:51;22.50;1.00
10192;DHT22;17580;50.850;4.504;2023-05-18T11:58:19;21.90;1.00
10192;DHT22;17580;50.850;4.504;2023-05-18T12:00:47;22.60;1.00
10192;DHT22;17580;50.850;4.504;2023-05-18T12:03:14;22.80;1.00
10192;DHT22;17580;50.850;4.504;2023-05-18T12:05:42;22.50;1.00
10192;DHT22;17580;50.850;4.504;2023-05-18T12:08:16;22.90;1.00
10192;DHT22;17580;50.850;4.504;2023-05-18T12:10:45;23.40;1.00
10192;DHT22;17580;50.850;4.504;2023-05-18T12:13:12;23.50;1.00
10192;DHT22;17580;50.850;4.504;2023-05-18T12:15:40;23.30;1.00
10192;DHT22;17580;50.850;4.504;2023-05-18T12:18:07;22.60;1.00
10192;DHT22;17580;50.850;4.504;2023-05-18T12:20:38;22.80;1.00
10192;DHT22;17580;50.850;4.504;2023-05-18T12:23:05;23.40;1.00
10192;DHT22;17580;50.850;4.504;2023-05-18T12:25:32;23.50;1.00
10192;DHT22;17580;50.850;4.504;2023-05-18T12:28:00;23.70;1.00
10192;DHT22;17580;50.850;4.504;2023-05-18T12:30:29;23.50;1.00
10192;DHT22;17580;50.850;4.504;2023-05-18T12:33:01;23.80;1.00
10192;DHT22;17580;50.850;4.504;2023-05-18T12:35:30;23.30;1.00
10192;DHT22;17580;50.850;4.504;2023-05-18T12:37:58;23.30;1.00
10192;DHT22;17580;50.850;4.504;2023-05-18T12:40:26;23.20;1.00
10192;DHT22;17580;50.850;4.504;2023-05-18T12:42:54;22.90;1.00
10192;DHT22;17580;50.850;4.504;2023-05-18T12:45:25;22.50;1.00
10192;DHT22;17580;50.850;4.504;2023-05-18T12:47:53;21.90;1.00
10192;DHT22;17580;50.850;4.504;2023-05-18T12:50:21;22.00;1.00
10192;DHT22;17580;50.850;4.504;2023-05-18T12:52:49;22.30;1.00
10192;DHT22;17580;50.850;4.504;2023-05-18T12:55:17;22.70;1.00
10192;DHT22;17580;50.850;4.504;2023-05-18T12:57:57;23.00;1.00
10192;DHT22;17580;50.850;4.504;2023-05-18T13:00:26;23.20;1.00
10192;DHT22;17580;50.850;4.504;2023-05-18T13:03:04;22.90;1.00
10192;DHT22;17580;50.850;4.504;2023-05-18T13:05:31;22.60;1.00
10192;DHT22;17580;50.850;4.504;2023-05-18T13:07:58;22.40;1.00
10192;DHT22;17580;50.850;4.504;2023-05-18T13:10:29;22.10;1.00
10192;DHT22;17580;50.850;4.504;2023-05-18T13:12:56;21.70;1.00
10192;DHT22;17580;50.850;4.504;2023-05-18T13:15:32;21.40;1.00
10192;DHT22;17580;50.850;4.504;2023-05-18T13:18:00;21.40;1.00
10192;DHT22;17580;50.850;4.504;2023-05-18T13:20:32;21.30;1.00
10192;DHT22;17580;50.850;4.504;2023-05-18T13:23:02;21.10;1.00
10192;DHT22;17580;50.850;4.504;2023-05-18T13:25:30;20.60;1.00
10192;DHT22;17580;50.850;4.504;2023-05-18T13:27:57;20.90;1.00
10192;DHT22;17580;50.850;4.504;2023-05-18T13:30:25;21.10;1.00
10192;DHT22;17580;50.850;4.504;2023-05-18T13:32:53;20.90;1.00
10192;DHT22;17580;50.850;4.504;2023-05-18T13:35:21;20.70;1.00
10192;DHT22;17580;50.850;4.504;2023-05-18T13:37:49;20.60;1.00
10192;DHT22;17580;50.850;4.504;2023-05-18T13:40:18;20.80;1.00
10192;DHT22;17580;50.850;4.504;2023-05-18T13:42:45;20.80;1.00
10192;DHT22;17580;50.850;4.504;2023-05-18T13:45:13;20.90;1.00
10192;DHT22;17580;50.850;4.504;2023-05-18T13:47:40;20.30;1.00
10192;DHT22;17580;50.850;4.504;2023-05-18T13:50:09;20.20;1.00
10192;DHT22;17580;50.850;4.504;2023-05-18T13:52:37;20.50;1.00
10192;DHT22;17580;50.850;4.504;2023-05-18T13:55:06;20.50;1.00
10192;DHT22;17580;50.850;4.504;2023-05-18T13:57:33;20.30;1.00
10192;DHT22;17580;50.850;4.504;2023-05-18T14:00:00;20.40;1.00
10192;DHT22;17580;50.850;4.504;2023-05-18T14:02:30;20.60;1.00
10192;DHT22;17580;50.850;4.504;2023-05-18T14:04:57;20.50;1.00
10192;DHT22;17580;50.850;4.504;2023-05-18T14:07:25;20.70;1.00
10192;DHT22;17580;50.850;4.504;2023-05-18T14:09:52;20.90;1.00
10192;DHT22;17580;50.850;4.504;2023-05-18T14:12:19;21.00;1.00
10192;DHT22;17580;50.850;4.504;2023-05-18T14:14:46;21.20;1.00
10192;DHT22;17580;50.850;4.504;2023-05-18T14:17:13;21.20;1.00
10192;DHT22;17580;50.850;4.504;2023-05-18T14:19:40;21.20;1.00
10192;DHT22;17580;50.850;4.504;2023-05-18T14:22:07;21.10;1.00
10192;DHT22;17580;50.850;4.504;2023-05-18T14:24:36;20.80;1.00
10192;DHT22;17580;50.850;4.504;2023-05-18T14:27:03;20.80;1.00
10192;DHT22;17580;50.850;4.504;2023-05-18T14:29:30;21.00;1.00
10192;DHT22;17580;50.850;4.504;2023-05-18T14:31:58;20.90;1.00
10192;DHT22;17580;50.850;4.504;2023-05-18T14:34:25;20.90;1.00
10192;DHT22;17580;50.850;4.504;2023-05-18T14:36:52;20.90;1.00
10192;DHT22;17580;50.850;4.504;2023-05-18T14:39:19;20.60;1.00
10192;DHT22;17580;50.850;4.504;2023-05-18T14:41:47;20.10;1.00
10192;DHT22;17580;50.850;4.504;2023-05-18T14:44:14;20.10;1.00
10192;DHT22;17580;50.850;4.504;2023-05-18T14:46:41;20.10;1.00
10192;DHT22;17580;50.850;4.504;2023-05-18T14:49:09;20.00;1.00
10192;DHT22;17580;50.850;4.504;2023-05-18T14:51:36;20.00;1.00
10192;DHT22;17580;50.850;4.504;2023-05-18T14:54:03;19.90;1.00
10192;DHT22;17580;50.850;4.504;2023-05-18T14:56:30;19.80;1.00
10192;DHT22;17580;50.850;4.504;2023-05-18T14:58:58;19.60;1.00
10192;DHT22;17580;50.850;4.504;2023-05-18T15:01:25;19.60;1.00
10192;DHT22;17580;50.850;4.504;2023-05-18T15:03:52;19.70;1.00
10192;DHT22;17580;50.850;4.504;2023-05-18T15:06:19;19.70;1.00
10192;DHT22;17580;50.850;4.504;2023-05-18T15:08:46;19.70;1.00
10192;DHT22;17580;50.850;4.504;2023-05-18T15:11:13;19.70;1.00
10192;DHT22;17580;50.850;4.504;2023-05-18T15:13:40;19.60;1.00
10192;DHT22;17580;50.850;4.504;2023-05-18T15:16:10;19.50;1.00
10192;DHT22;17580;50.850;4.504;2023-05-18T15:18:39;19.40;1.00
10192;DHT22;17580;50.850;4.504;2023-05-18T15:21:06;19.40;1.00
10192;DHT22;17580;50.850;4.504;2023-05-18T15:23:33;19.50;1.00
10192;DHT22;17580;50.850;4.504;2023-05-18T15:26:00;19.50;1.00
10192;DHT22;17580;50.850;4.504;2023-05-18T15:28:27;19.40;1.00
10192;DHT22;17580;50.850;4.504;2023-05-18T15:30:54;19.40;1.00
10192;DHT22;17580;50.850;4.504;2023-05-18T15:33:22;19.40;1.00
10192;DHT22;17580;50.850;4.504;2023-05-18T15:35:49;19.30;1.00
10192;DHT22;17580;50.850;4.504;2023-05-18T15:38:16;19.10;1.00
10192;DHT22;17580;50.850;4.504;2023-05-18T15:40:43;19.00;1.00
10192;DHT22;17580;50.850;4.504;2023-05-18T15:43:12;18.90;1.00
10192;DHT22;17580;50.850;4.504;2023-05-18T15:45:39;18.90;1.00
10192;DHT22;17580;50.850;4.504;2023-05-18T15:48:06;18.70;1.00
10192;DHT22;17580;50.850;4.504;2023-05-18T15:50:35;18.50;1.00